Time;durP1;ratioP1;P1;durP2;ratioP2;P2;SDS_P1;SDS_P2;PMS_P1;PMS_P2;Temp;Humidity;BMP_temperature;BMP_pressure;BME280_temperature;BME280_humidity;BME280_pressure;Samples;Min_cycle;Max_cycle;Signal;HPM_P1;HPM_P2
2023/06/16 00:01:23;;;;;;;7.75;5.20;;;;;;;17.58;58.31;101635.59;5044129;28;20021;-67
2023/06/16 00:03:49;;;;;;;6.18;5.22;;;;;;;17.64;58.41;101643.22;5045740;28;20033;-67
2023/06/16 00:06:15;;;;;;;7.95;5.80;;;;;;;17.66;58.15;101635.94;5045089;28;20025;-68
2023/06/16 00:08:48;;;;;;;7.03;5.20;;;;;;;17.60;58.70;101639.06;5045263;28;20256;-67
2023/06/16 00:11:16;;;;;;;6.18;5.45;;;;;;;17.54;58.71;101639.44;5044385;28;20025;-67
2023/06/16 00:13:42;;;;;;;7.50;5.68;;;;;;;17.60;58.59;101625.59;5044268;28;20021;-67
2023/06/16 00:16:09;;;;;;;6.32;5.35;;;;;;;17.51;58.85;101620.81;5023274;28;20029;-67
2023/06/16 00:18:35;;;;;;;6.05;5.45;;;;;;;17.45;59.44;101630.16;5044636;28;20040;-67
2023/06/16 00:21:02;;;;;;;8.35;5.85;;;;;;;17.51;59.01;101631.56;5044160;28;20029;-67
2023/06/16 00:23:27;;;;;;;9.02;5.88;;;;;;;17.42;58.99;101631.22;5045212;28;20507;-67
2023/06/16 00:25:53;;;;;;;6.72;6.00;;;;;;;17.24;59.46;101629.78;5045058;28;20048;-67
2023/06/16 00:28:19;;;;;;;7.82;5.40;;;;;;;17.10;59.79;101624.47;5045159;28;20335;-67
2023/06/16 00:30:45;;;;;;;8.10;6.13;;;;;;;17.04;60.03;101627.53;5043497;28;20568;-67
2023/06/16 00:33:10;;;;;;;8.10;6.07;;;;;;;17.04;60.49;101635.59;5040054;28;20053;-67
2023/06/16 00:35:36;;;;;;;12.55;6.80;;;;;;;17.05;60.50;101637.31;5044925;28;20033;-68
2023/06/16 00:38:01;;;;;;;6.40;5.78;;;;;;;17.12;59.66;101634.13;5045492;28;20036;-67
2023/06/16 00:40:26;;;;;;;8.10;6.25;;;;;;;17.00;60.79;101634.94;5043895;28;20044;-67
2023/06/16 00:42:53;;;;;;;7.68;6.10;;;;;;;17.01;60.85;101633.97;5045222;28;20103;-67
2023/06/16 00:45:19;;;;;;;8.63;6.30;;;;;;;16.94;60.87;101640.72;5045049;28;20132;-67
2023/06/16 00:47:44;;;;;;;7.50;6.20;;;;;;;16.86;61.28;101633.16;5041927;28;20152;-69
2023/06/16 00:50:10;;;;;;;6.65;5.97;;;;;;;16.95;60.90;101630.81;5043416;28;20024;-68
2023/06/16 00:52:37;;;;;;;7.32;6.10;;;;;;;16.89;61.41;101630.28;5042286;28;20227;-67
2023/06/16 00:55:03;;;;;;;7.97;6.13;;;;;;;16.90;61.14;101629.31;5043124;28;20029;-67
2023/06/16 00:57:33;;;;;;;8.23;5.88;;;;;;;16.90;61.56;101633.81;5025865;28;20029;-67
2023/06/16 00:59:59;;;;;;;7.68;6.60;;;;;;;16.85;61.51;101620.69;5043331;28;20415;-67
2023/06/16 01:02:24;;;;;;;8.93;6.43;;;;;;;16.71;61.92;101617.09;5033806;28;20051;-68
2023/06/16 01:04:51;;;;;;;6.85;6.15;;;;;;;16.75;61.79;101624.91;5039518;28;20026;-68
2023/06/16 01:07:34;;;;;;;9.13;6.15;;;;;;;16.76;61.52;101621.28;5041302;28;20025;-68
2023/06/16 01:10:12;;;;;;;6.65;5.75;;;;;;;16.75;61.46;101616.84;5041494;28;20090;-67
2023/06/16 01:12:49;;;;;;;8.55;5.75;;;;;;;16.64;62.25;101609.44;5038562;28;20041;-68
2023/06/16 01:15:18;;;;;;;7.63;5.80;;;;;;;16.56;61.16;101613.59;5041096;28;20036;-68
2023/06/16 01:17:47;;;;;;;6.18;5.55;;;;;;;16.59;61.29;101622.28;5034322;28;20028;-68
2023/06/16 01:20:23;;;;;;;7.45;6.15;;;;;;;16.55;61.24;101617.22;5041642;28;20059;-67
2023/06/16 01:22:57;;;;;;;7.68;5.70;;;;;;;16.54;61.91;101626.25;5043185;28;20032;-67
2023/06/16 01:25:28;;;;;;;10.38;6.20;;;;;;;16.46;62.27;101610.59;5038872;28;20032;-66
2023/06/16 01:27:57;;;;;;;8.70;6.07;;;;;;;16.51;61.55;101621.94;5042600;28;20048;-67
2023/06/16 01:30:24;;;;;;;6.50;5.90;;;;;;;16.50;62.07;101619.34;5042912;28;20102;-67
2023/06/16 01:32:53;;;;;;;6.13;5.53;;;;;;;16.37;61.87;101630.84;5041917;28;20059;-68
2023/06/16 01:35:20;;;;;;;8.73;5.10;;;;;;;16.40;61.41;101630.69;5038475;28;20033;-68
2023/06/16 01:37:49;;;;;;;6.07;5.32;;;;;;;16.30;60.67;101621.47;5039665;28;20060;-68
2023/06/16 01:40:15;;;;;;;7.72;5.70;;;;;;;16.34;60.61;101617.59;5042177;28;20063;-66
2023/06/16 01:42:42;;;;;;;8.07;5.68;;;;;;;16.24;60.33;101619.16;5040861;28;20060;-67
2023/06/16 01:45:08;;;;;;;7.10;5.63;;;;;;;16.08;60.36;101608.50;5041455;28;20028;-67
2023/06/16 01:47:34;;;;;;;6.68;5.50;;;;;;;16.10;60.33;101608.41;5042132;28;20068;-66
2023/06/16 01:50:00;;;;;;;7.80;5.65;;;;;;;16.09;60.03;101603.97;5040131;28;20029;-67
2023/06/16 01:52:26;;;;;;;6.55;5.38;;;;;;;15.92;60.26;101608.56;5041038;28;20051;-67
2023/06/16 01:54:51;;;;;;;8.55;6.18;;;;;;;16.02;59.92;101605.34;5016098;28;20027;-66
2023/06/16 01:57:16;;;;;;;7.07;5.82;;;;;;;15.87;59.82;101602.63;5042892;28;20108;-67
2023/06/16 01:59:43;;;;;;;7.38;5.30;;;;;;;15.90;59.85;101597.06;5043302;28;20029;-68
2023/06/16 02:02:15;;;;;;;7.32;6.10;;;;;;;15.87;59.51;101605.31;5042120;28;20307;-66
2023/06/16 02:04:45;;;;;;;9.73;6.25;;;;;;;15.80;59.38;101597.72;5043191;28;20064;-67
2023/06/16 02:07:21;;;;;;;8.38;5.70;;;;;;;15.85;59.41;101606.38;5042292;28;20032;-66
2023/06/16 02:09:49;;;;;;;7.18;5.82;;;;;;;15.83;59.52;101613.63;5021538;28;20375;-66
2023/06/16 02:12:15;;;;;;;8.10;6.10;;;;;;;15.86;59.33;101611.66;5041678;28;20016;-67
2023/06/16 02:14:43;;;;;;;7.88;5.68;;;;;;;15.78;59.65;101621.13;5043051;28;20044;-67
2023/06/16 02:17:09;;;;;;;6.40;5.60;;;;;;;15.82;59.52;101611.94;5021748;28;20040;-66
2023/06/16 02:19:38;;;;;;;9.05;6.10;;;;;;;15.86;59.89;101614.31;5040704;28;20051;-67
2023/06/16 02:22:04;;;;;;;6.22;5.50;;;;;;;15.91;59.38;101612.22;5036197;28;20040;-66
2023/06/16 02:24:30;;;;;;;9.07;5.55;;;;;;;15.89;59.59;101610.59;5034773;28;20025;-67
2023/06/16 02:26:56;;;;;;;7.82;5.68;;;;;;;15.81;60.22;101608.38;5040325;28;20036;-67
2023/06/16 02:29:21;;;;;;;7.72;5.57;;;;;;;15.82;60.27;101610.09;5041076;28;20036;-68
2023/06/16 02:31:47;;;;;;;6.00;5.50;;;;;;;15.73;61.90;101609.81;5042792;28;20200;-67
2023/06/16 02:34:13;;;;;;;6.97;5.68;;;;;;;15.63;62.70;101613.00;5041146;28;20481;-67
2023/06/16 02:36:39;;;;;;;6.47;5.78;;;;;;;15.56;63.24;101618.84;5042549;28;20041;-67
2023/06/16 02:39:04;;;;;;;6.68;5.57;;;;;;;15.45;63.90;101620.31;5039344;28;20064;-67
2023/06/16 02:41:30;;;;;;;7.72;5.82;;;;;;;15.45;64.11;101611.41;5039136;28;20087;-67
2023/06/16 02:43:55;;;;;;;7.13;5.72;;;;;;;15.42;64.17;101615.16;5041910;28;20061;-67
2023/06/16 02:46:20;;;;;;;7.05;5.68;;;;;;;15.34;64.19;101611.16;5041799;28;20028;-67
2023/06/16 02:48:46;;;;;;;6.47;5.40;;;;;;;15.32;64.35;101616.63;5041258;28;20029;-67
2023/06/16 02:51:11;;;;;;;6.78;5.53;;;;;;;15.27;63.63;101613.34;5040283;28;20029;-67
2023/06/16 02:53:39;;;;;;;8.48;5.88;;;;;;;15.26;63.37;101617.00;5041628;28;20494;-67
2023/06/16 02:56:04;;;;;;;7.60;6.07;;;;;;;15.24;63.42;101608.16;5035440;28;20064;-67
2023/06/16 02:58:29;;;;;;;8.57;6.22;;;;;;;15.19;63.54;101616.47;5041604;28;20059;-67
2023/06/16 03:00:55;;;;;;;6.47;5.35;;;;;;;15.10;64.05;101598.25;5041024;28;20536;-67
2023/06/16 03:03:21;;;;;;;6.55;5.75;;;;;;;15.06;64.31;101601.19;5041319;28;20525;-67
2023/06/16 03:05:46;;;;;;;6.47;5.82;;;;;;;15.00;64.02;101609.56;5040034;28;20598;-68
2023/06/16 03:08:12;;;;;;;9.18;6.13;;;;;;;15.03;63.81;101604.03;5043585;28;20342;-66
2023/06/16 03:10:37;;;;;;;7.63;5.50;;;;;;;15.08;63.25;101604.63;5041585;28;20063;-67
2023/06/16 03:13:03;;;;;;;9.60;7.22;;;;;;;15.05;63.17;101610.16;5042097;28;20502;-67
2023/06/16 03:15:30;;;;;;;8.05;6.30;;;;;;;14.95;62.79;101610.69;5041355;28;20025;-67
2023/06/16 03:17:55;;;;;;;7.15;6.00;;;;;;;15.05;62.98;101605.69;5046837;28;20036;-66
2023/06/16 03:20:21;;;;;;;6.45;5.85;;;;;;;14.96;62.91;101611.56;5040866;28;20035;-67
2023/06/16 03:22:46;;;;;;;6.65;6.00;;;;;;;14.89;63.37;101611.06;5040683;28;20029;-67
2023/06/16 03:25:12;;;;;;;7.40;6.07;;;;;;;14.89;63.75;101615.56;5041838;28;20527;-67
2023/06/16 03:27:40;;;;;;;6.85;6.25;;;;;;;14.93;63.69;101609.94;5041154;28;20120;-67
2023/06/16 03:30:08;;;;;;;9.57;6.85;;;;;;;14.95;63.46;101610.69;5041404;28;20048;-67
2023/06/16 03:32:33;;;;;;;7.60;6.55;;;;;;;14.94;63.87;101608.97;5041860;28;20182;-67
2023/06/16 03:35:02;;;;;;;10.10;6.15;;;;;;;14.85;64.22;101617.53;5041240;28;20546;-67
2023/06/16 03:37:27;;;;;;;7.20;6.10;;;;;;;14.82;64.07;101620.38;5038171;28;20027;-67
2023/06/16 03:39:53;;;;;;;9.18;6.93;;;;;;;14.92;63.80;101616.25;5038202;28;20502;-67
2023/06/16 03:42:18;;;;;;;7.60;6.72;;;;;;;14.90;64.30;101615.47;5041601;28;20530;-67
2023/06/16 03:44:43;;;;;;;10.07;6.60;;;;;;;14.83;64.23;101616.75;5041303;28;20397;-67
2023/06/16 03:47:09;;;;;;;8.40;6.35;;;;;;;14.80;65.28;101619.63;5020809;28;20110;-67
2023/06/16 03:49:34;;;;;;;7.53;6.53;;;;;;;14.85;65.57;101620.22;5038322;28;20103;-67
2023/06/16 03:51:59;;;;;;;8.30;6.22;;;;;;;14.82;65.37;101622.22;5040042;28;20470;-67
2023/06/16 03:54:26;;;;;;;8.75;6.88;;;;;;;14.76;65.01;101623.44;5038922;28;20036;-67
2023/06/16 03:56:51;;;;;;;7.75;6.95;;;;;;;14.74;64.99;101617.28;5038825;28;20029;-68
2023/06/16 03:59:17;;;;;;;9.00;6.70;;;;;;;14.66;65.79;101617.69;5037999;28;20037;-66
2023/06/16 04:01:42;;;;;;;10.43;7.15;;;;;;;14.74;65.37;101625.31;5041125;28;20037;-67
2023/06/16 04:04:08;;;;;;;9.52;6.63;;;;;;;14.77;65.46;101622.47;5040372;28;20487;-67
2023/06/16 04:06:34;;;;;;;9.65;7.28;;;;;;;14.71;65.68;101622.78;5040166;28;20075;-67
2023/06/16 04:09:01;;;;;;;9.35;6.97;;;;;;;14.88;65.25;101627.22;5040423;28;20036;-67
2023/06/16 04:11:27;;;;;;;7.70;6.88;;;;;;;14.82;64.48;101627.56;5040431;28;20031;-67
2023/06/16 04:13:52;;;;;;;7.78;6.93;;;;;;;14.92;64.08;101629.66;5016219;28;20107;-68
2023/06/16 04:16:18;;;;;;;8.98;7.22;;;;;;;14.83;64.34;101627.47;5041036;28;20108;-67
2023/06/16 04:18:47;;;;;;;8.55;7.30;;;;;;;14.79;64.38;101631.28;5037478;28;20075;-67
2023/06/16 04:21:22;;;;;;;10.27;7.25;;;;;;;14.74;64.78;101633.34;5042051;28;20043;-67
2023/06/16 04:23:47;;;;;;;9.45;7.57;;;;;;;14.67;64.83;101631.94;5041402;28;20060;-67
2023/06/16 04:26:13;;;;;;;9.95;7.65;;;;;;;14.84;65.06;101639.06;5042188;28;20513;-67
2023/06/16 04:28:44;;;;;;;8.10;7.22;;;;;;;14.85;65.38;101635.44;5037016;28;20535;-67
2023/06/16 04:31:11;;;;;;;8.52;7.72;;;;;;;14.85;64.73;101632.78;5036921;28;20041;-67
2023/06/16 04:33:41;;;;;;;9.93;8.05;;;;;;;15.00;64.78;101639.91;5040447;28;20103;-68
2023/06/16 04:36:08;;;;;;;9.15;7.78;;;;;;;15.02;64.80;101643.41;5040962;28;20052;-67
2023/06/16 04:38:33;;;;;;;9.70;8.23;;;;;;;15.02;63.65;101637.19;5040122;28;20390;-67
2023/06/16 04:40:58;;;;;;;11.48;8.15;;;;;;;15.02;63.29;101643.41;5056638;28;20086;-68
2023/06/16 04:43:24;;;;;;;9.15;8.25;;;;;;;14.98;62.95;101640.97;5044685;28;20508;-67
2023/06/16 04:45:49;;;;;;;12.02;8.40;;;;;;;15.07;62.49;101640.44;5041447;28;20539;-68
2023/06/16 04:48:15;;;;;;;9.63;8.60;;;;;;;15.21;62.65;101648.56;5035671;28;20029;-68
2023/06/16 04:50:40;;;;;;;12.18;8.80;;;;;;;15.24;62.64;101639.47;5043376;28;20033;-67
2023/06/16 04:53:05;;;;;;;12.68;8.73;;;;;;;15.40;62.44;101643.88;5043601;28;20060;-67
2023/06/16 04:55:31;;;;;;;10.25;9.05;;;;;;;15.44;62.64;101642.72;5044256;28;20021;-67
2023/06/16 04:57:56;;;;;;;10.15;8.52;;;;;;;15.57;61.65;101648.25;5044988;28;20258;-67
2023/06/16 05:00:21;;;;;;;11.18;9.10;;;;;;;15.65;62.04;101651.38;5020290;28;20034;-67
2023/06/16 05:02:47;;;;;;;12.02;9.63;;;;;;;15.73;61.18;101645.56;5041465;28;20025;-69
2023/06/16 05:05:12;;;;;;;12.35;8.40;;;;;;;15.77;61.69;101646.25;5043802;28;20037;-66
2023/06/16 05:07:37;;;;;;;11.45;9.13;;;;;;;15.78;61.07;101650.66;5034627;28;20033;-68
2023/06/16 05:10:03;;;;;;;9.85;8.88;;;;;;;15.83;61.06;101649.41;5045124;28;20021;-67
2023/06/16 05:12:29;;;;;;;12.90;9.98;;;;;;;15.81;60.44;101651.31;5034962;28;20412;-67
2023/06/16 05:14:54;;;;;;;11.85;9.18;;;;;;;15.98;60.44;101654.81;5041024;28;20051;-67
2023/06/16 05:17:21;;;;;;;9.90;8.95;;;;;;;16.02;61.00;101648.31;5042760;28;20029;-67
2023/06/16 05:19:50;;;;;;;11.23;10.07;;;;;;;16.11;60.76;101659.34;5043874;28;20393;-67
2023/06/16 05:22:15;;;;;;;11.00;9.80;;;;;;;16.15;60.68;101655.50;5045050;28;20037;-68
2023/06/16 05:24:40;;;;;;;11.32;10.13;;;;;;;16.28;60.05;101658.31;5040324;28;20102;-67
2023/06/16 05:27:06;;;;;;;11.70;10.27;;;;;;;16.31;59.66;101660.81;5039930;28;20098;-67
2023/06/16 05:29:31;;;;;;;11.60;9.88;;;;;;;16.39;60.26;101660.34;5040182;28;20067;-67
2023/06/16 05:31:56;;;;;;;12.95;10.50;;;;;;;16.43;60.01;101656.50;5034952;28;20049;-67
2023/06/16 05:34:22;;;;;;;13.32;10.50;;;;;;;16.54;59.65;101663.88;5043495;28;20112;-67
2023/06/16 05:36:50;;;;;;;14.02;10.80;;;;;;;16.62;59.65;101662.41;5026193;28;20052;-68
2023/06/16 05:39:15;;;;;;;11.43;10.18;;;;;;;16.62;59.67;101662.41;5043519;28;20033;-67
2023/06/16 05:41:42;;;;;;;12.40;11.05;;;;;;;16.72;59.67;101665.41;5043534;28;20051;-67
2023/06/16 05:44:08;;;;;;;12.35;11.13;;;;;;;16.85;59.76;101655.63;5044413;28;20021;-67
2023/06/16 05:46:33;;;;;;;12.65;11.40;;;;;;;16.99;59.53;101662.78;5039772;28;20032;-68
2023/06/16 05:48:58;;;;;;;13.25;11.10;;;;;;;17.16;58.92;101667.06;5044331;28;20376;-67
2023/06/16 05:51:24;;;;;;;13.75;11.45;;;;;;;17.25;58.67;101666.47;5042228;28;20025;-67
2023/06/16 05:53:50;;;;;;;12.07;10.93;;;;;;;17.34;58.75;101659.63;5043759;28;20025;-68
2023/06/16 05:56:16;;;;;;;13.13;11.70;;;;;;;17.45;58.73;101662.47;5044077;28;20028;-68
2023/06/16 05:58:42;;;;;;;14.65;12.13;;;;;;;17.60;58.16;101660.59;5044085;28;20191;-67
2023/06/16 06:01:07;;;;;;;13.32;12.02;;;;;;;17.71;57.97;101660.69;5037775;28;20104;-68
2023/06/16 06:03:32;;;;;;;15.50;12.82;;;;;;;17.82;57.64;101666.25;5040645;28;20035;-68
2023/06/16 06:05:58;;;;;;;13.30;11.90;;;;;;;18.11;56.19;101666.94;5043388;28;20402;-68
2023/06/16 06:08:27;;;;;;;23.80;12.63;;;;;;;18.30;56.24;101665.66;5042392;28;20044;-68
2023/06/16 06:10:55;;;;;;;13.73;12.27;;;;;;;18.33;55.94;101679.78;5043773;28;20025;-66
2023/06/16 06:13:21;;;;;;;14.05;12.70;;;;;;;18.62;56.11;101676.84;5039066;28;20036;-68
2023/06/16 06:15:46;;;;;;;15.25;13.38;;;;;;;18.78;55.25;101677.50;5016549;28;20021;-68
2023/06/16 06:18:11;;;;;;;14.98;12.18;;;;;;;18.84;54.57;101677.06;5042307;28;20065;-68
2023/06/16 06:20:41;;;;;;;13.32;12.00;;;;;;;19.24;54.67;101675.97;5041770;28;20021;-68
2023/06/16 06:23:07;;;;;;;17.90;12.75;;;;;;;19.48;53.57;101678.66;5042907;28;20036;-67
2023/06/16 06:25:32;;;;;;;14.85;12.52;;;;;;;19.59;52.90;101673.31;5043059;28;20037;-67
2023/06/16 06:27:58;;;;;;;12.50;11.30;;;;;;;19.84;51.67;101684.00;5043697;28;20522;-67
2023/06/16 06:30:24;;;;;;;13.32;11.95;;;;;;;19.98;51.76;101676.69;5035598;28;20044;-67
2023/06/16 06:32:50;;;;;;;13.13;10.98;;;;;;;20.12;51.05;101682.75;5036359;28;20028;-68
2023/06/16 06:35:16;;;;;;;12.40;10.73;;;;;;;20.35;50.52;101686.34;5021886;28;20039;-69
2023/06/16 06:37:42;;;;;;;12.68;10.85;;;;;;;20.62;50.81;101693.31;5038944;28;20436;-68
2023/06/16 06:40:07;;;;;;;12.77;10.18;;;;;;;20.75;48.85;101687.75;5029080;28;20037;-68
2023/06/16 06:42:33;;;;;;;9.93;8.93;;;;;;;21.00;46.36;101695.63;5036648;28;20056;-69
2023/06/16 06:44:58;;;;;;;11.38;8.32;;;;;;;20.95;44.56;101700.56;5041272;28;20029;-68
2023/06/16 06:47:24;;;;;;;10.73;7.97;;;;;;;21.12;43.90;101685.63;5041140;28;20029;-68
2023/06/16 06:49:52;;;;;;;8.13;7.35;;;;;;;21.36;43.80;101686.34;5040683;28;20483;-70
2023/06/16 06:52:20;;;;;;;9.73;8.20;;;;;;;21.41;44.28;101688.69;5040108;28;20090;-68
2023/06/16 06:54:45;;;;;;;10.60;7.45;;;;;;;21.66;43.34;101682.06;5039015;28;20441;-68
2023/06/16 06:57:12;;;;;;;9.07;7.72;;;;;;;21.76;41.63;101685.69;5032184;28;20028;-67
2023/06/16 06:59:40;;;;;;;9.38;7.07;;;;;;;21.97;41.53;101695.69;5035502;28;20097;-67
2023/06/16 07:02:06;;;;;;;7.15;6.45;;;;;;;22.15;40.54;101705.00;5035818;28;20032;-68
2023/06/16 07:04:31;;;;;;;9.65;7.28;;;;;;;22.31;40.42;101693.69;5035214;28;20029;-68
2023/06/16 07:06:56;;;;;;;8.55;6.95;;;;;;;22.38;39.90;101687.59;5033001;28;20039;-68
2023/06/16 07:09:22;;;;;;;9.70;6.93;;;;;;;22.44;38.86;101690.75;5038784;28;20177;-68
2023/06/16 07:11:50;;;;;;;7.07;6.22;;;;;;;22.62;39.13;101692.72;5038481;28;20017;-69
2023/06/16 07:14:15;;;;;;;8.73;6.25;;;;;;;22.87;38.64;101699.53;5041598;28;20407;-69
2023/06/16 07:16:41;;;;;;;11.82;6.97;;;;;;;22.96;38.08;101697.88;5038619;28;20040;-68
2023/06/16 07:19:06;;;;;;;7.63;6.80;;;;;;;23.01;37.47;101694.75;5034270;28;20341;-68
2023/06/16 07:21:31;;;;;;;9.23;7.05;;;;;;;23.28;38.09;101696.81;5040063;28;20094;-68
2023/06/16 07:23:57;;;;;;;9.55;6.90;;;;;;;23.54;37.35;101700.72;5030041;28;20067;-67
2023/06/16 07:26:23;;;;;;;9.75;6.78;;;;;;;23.51;36.78;101700.13;5037705;28;20033;-68
2023/06/16 07:28:49;;;;;;;7.05;6.07;;;;;;;24.06;36.22;101692.28;5040709;28;20037;-67
2023/06/16 07:31:14;;;;;;;9.43;6.32;;;;;;;24.32;35.91;101704.25;5042524;28;20565;-67
2023/06/16 07:33:39;;;;;;;7.85;5.88;;;;;;;24.62;35.94;101705.06;5040267;28;20029;-67
2023/06/16 07:36:05;;;;;;;8.40;5.72;;;;;;;25.04;34.29;101701.88;5034014;28;20386;-68
2023/06/16 07:38:31;;;;;;;7.45;5.38;;;;;;;25.42;33.35;101697.25;5033859;28;20483;-69
2023/06/16 07:40:56;;;;;;;7.70;5.60;;;;;;;25.70;32.07;101706.19;5037655;28;20037;-68
2023/06/16 07:43:21;;;;;;;6.05;4.78;;;;;;;26.33;29.27;101701.47;5020357;28;20099;-68
2023/06/16 07:45:51;;;;;;;6.53;5.00;;;;;;;26.62;30.93;101700.31;5044363;28;20028;-67
2023/06/16 07:48:16;;;;;;;5.90;5.28;;;;;;;26.96;30.52;101708.50;5042059;28;20040;-67
2023/06/16 07:50:41;;;;;;;7.30;5.45;;;;;;;27.14;30.72;101702.13;5037733;28;20028;-67
2023/06/16 07:53:07;;;;;;;9.07;5.45;;;;;;;27.48;30.42;101691.94;5032889;28;20032;-68
2023/06/16 07:55:32;;;;;;;6.20;5.60;;;;;;;27.98;29.21;101692.88;5037486;28;20533;-67
2023/06/16 07:57:57;;;;;;;9.15;5.80;;;;;;;28.15;27.91;101700.03;5031125;28;20124;-68
2023/06/16 08:00:23;;;;;;;7.40;6.03;;;;;;;28.48;27.07;101698.13;5039581;28;20577;-68
2023/06/16 08:02:50;;;;;;;6.85;5.55;;;;;;;28.65;26.67;101704.41;5037869;28;20057;-68
2023/06/16 08:05:16;;;;;;;7.60;5.20;;;;;;;29.24;26.15;101702.13;5035723;28;20044;-69
2023/06/16 08:07:42;;;;;;;5.80;5.30;;;;;;;29.38;24.54;101697.78;5037921;28;20123;-68
2023/06/16 08:10:08;;;;;;;8.23;5.30;;;;;;;29.88;24.46;101684.59;5040502;28;20098;-68
2023/06/16 08:12:34;;;;;;;6.55;4.80;;;;;;;29.80;23.80;101695.63;5037540;28;20036;-68
2023/06/16 08:14:59;;;;;;;5.13;4.63;;;;;;;30.32;22.75;101694.84;5026159;28;20393;-68
2023/06/16 08:17:25;;;;;;;7.45;4.72;;;;;;;30.30;23.71;101697.78;5037582;28;20075;-68
2023/06/16 08:19:52;;;;;;;5.30;4.80;;;;;;;30.78;22.91;101697.47;5033680;28;20391;-68
2023/06/16 08:22:18;;;;;;;5.65;5.05;;;;;;;31.16;23.17;101699.00;5041664;28;20029;-69
2023/06/16 08:24:43;;;;;;;5.68;4.93;;;;;;;31.25;22.25;101697.84;5043644;28;20028;-68
2023/06/16 08:27:08;;;;;;;5.40;4.85;;;;;;;31.21;21.39;101698.44;5042842;28;20021;-69
2023/06/16 08:29:34;;;;;;;9.45;4.47;;;;;;;31.52;21.06;101692.69;5044390;28;20025;-68
2023/06/16 08:32:00;;;;;;;5.63;4.20;;;;;;;32.39;20.46;101700.69;5039295;28;20053;-68
2023/06/16 08:34:25;;;;;;;5.93;4.38;;;;;;;32.77;19.90;101688.41;5023978;28;20103;-70
2023/06/16 08:36:51;;;;;;;4.50;4.13;;;;;;;33.33;19.33;101697.38;5042205;28;20705;-69
2023/06/16 08:39:17;;;;;;;10.18;4.60;;;;;;;33.73;19.68;101686.44;5040835;28;20170;-67
2023/06/16 08:41:42;;;;;;;5.93;4.13;;;;;;;33.50;19.49;101697.03;5022470;28;20041;-68
2023/06/16 08:44:09;;;;;;;5.07;4.30;;;;;;;33.65;19.54;101697.69;5041272;28;20102;-68
2023/06/16 08:46:36;;;;;;;5.97;4.30;;;;;;;33.64;18.78;101696.00;5044020;28;20028;-68
2023/06/16 08:49:03;;;;;;;8.00;4.95;;;;;;;33.69;18.27;101691.56;5037175;28;20063;-69
2023/06/16 08:51:33;;;;;;;5.10;4.60;;;;;;;33.64;18.32;101698.75;5036853;28;20325;-69
2023/06/16 08:54:02;;;;;;;4.50;4.07;;;;;;;34.12;18.62;101685.66;5044272;28;20044;-67
2023/06/16 08:56:33;;;;;;;4.68;3.47;;;;;;;34.75;17.67;101690.66;5037425;28;20021;-69
2023/06/16 08:59:03;;;;;;;5.38;3.80;;;;;;;34.98;17.44;101692.94;5042381;28;20041;-68
2023/06/16 09:01:30;;;;;;;3.83;3.42;;;;;;;35.10;16.89;101688.41;5041284;28;20076;-70
2023/06/16 09:03:55;;;;;;;3.88;3.40;;;;;;;34.91;16.32;101692.09;5043980;28;20040;-67
2023/06/16 09:06:21;;;;;;;3.95;3.65;;;;;;;35.30;17.21;101684.69;5042407;28;20046;-69
2023/06/16 09:08:47;;;;;;;4.53;3.58;;;;;;;35.99;15.72;101692.13;5041536;28;20032;-67
2023/06/16 09:11:21;;;;;;;3.92;3.60;;;;;;;36.05;16.07;101690.38;5041167;28;20028;-67
2023/06/16 09:13:46;;;;;;;4.78;3.47;;;;;;;35.83;15.59;101699.06;5035213;28;20128;-67
2023/06/16 09:16:16;;;;;;;4.57;3.70;;;;;;;36.35;15.85;101687.75;5023918;28;20116;-69
2023/06/16 09:18:44;;;;;;;4.05;3.67;;;;;;;36.74;15.15;101694.81;5042714;28;20249;-67
2023/06/16 09:21:11;;;;;;;4.03;3.60;;;;;;;36.58;15.79;101687.97;5045512;28;20047;-67
2023/06/16 09:23:38;;;;;;;3.80;3.50;;;;;;;36.57;15.19;101694.56;5042010;28;20024;-68
2023/06/16 09:26:13;;;;;;;4.20;3.78;;;;;;;36.86;16.53;101700.44;5038052;28;20039;-68
2023/06/16 09:28:39;;;;;;;4.50;3.60;;;;;;;37.09;15.22;101691.44;5036198;28;20518;-68
2023/06/16 09:31:11;;;;;;;5.15;3.83;;;;;;;37.23;15.46;101697.66;5042567;28;20041;-68
2023/06/16 09:33:36;;;;;;;5.55;4.25;;;;;;;37.38;14.53;101689.75;5037947;28;20036;-68
2023/06/16 09:36:02;;;;;;;4.00;3.60;;;;;;;37.08;15.04;101693.38;5043198;28;20036;-68
2023/06/16 09:38:36;;;;;;;4.28;3.38;;;;;;;37.32;15.46;101691.53;5022132;28;20039;-68
2023/06/16 09:41:09;;;;;;;6.07;3.45;;;;;;;38.30;14.50;101692.97;5031442;28;20021;-68
2023/06/16 09:43:36;;;;;;;4.28;3.25;;;;;;;39.10;13.75;101680.28;5043363;28;20025;-67
2023/06/16 09:46:02;;;;;;;4.88;3.70;;;;;;;39.87;13.33;101685.38;5042166;28;20100;-70
2023/06/16 09:48:34;;;;;;;8.05;3.72;;;;;;;39.74;13.35;101686.53;5044128;28;20039;-68
2023/06/16 09:50:59;;;;;;;4.20;3.40;;;;;;;39.32;13.10;101681.31;5041907;28;20033;-69
2023/06/16 09:53:26;;;;;;;3.67;3.38;;;;;;;39.10;12.94;101692.28;5039281;28;20074;-69
2023/06/16 09:55:54;;;;;;;5.13;3.75;;;;;;;39.26;13.83;101679.53;5016968;28;20048;-68
2023/06/16 09:58:20;;;;;;;4.03;3.63;;;;;;;39.54;13.45;101675.84;5036824;28;20094;-68
2023/06/16 10:00:45;;;;;;;3.80;3.47;;;;;;;39.81;12.96;101680.81;5040261;28;20103;-69
2023/06/16 10:03:12;;;;;;;5.40;3.75;;;;;;;40.22;12.79;101675.94;5037076;28;20017;-68
2023/06/16 10:05:40;;;;;;;4.43;3.85;;;;;;;40.73;13.17;101668.28;5034585;28;20037;-68
2023/06/16 10:08:06;;;;;;;3.92;3.60;;;;;;;41.45;11.57;101676.41;5038327;28;20040;-68
2023/06/16 10:10:33;;;;;;;5.65;3.70;;;;;;;41.57;11.39;101673.44;5041081;28;20029;-68
2023/06/16 10:13:03;;;;;;;5.18;3.60;;;;;;;41.63;11.77;101680.75;5042646;28;20040;-68
2023/06/16 10:15:31;;;;;;;4.00;3.70;;;;;;;40.79;11.10;101672.81;5038556;28;20503;-69
2023/06/16 10:18:03;;;;;;;3.60;3.30;;;;;;;40.74;11.30;101679.19;5042371;28;20041;-68
2023/06/16 10:20:32;;;;;;;5.03;3.70;;;;;;;41.01;11.33;101665.31;5041267;28;20060;-68
2023/06/16 10:22:59;;;;;;;3.65;3.35;;;;;;;40.67;11.67;101664.56;5040602;28;20128;-67
2023/06/16 10:25:25;;;;;;;3.97;3.58;;;;;;;41.23;12.39;101670.84;5041599;28;20387;-68
2023/06/16 10:27:52;;;;;;;3.88;3.53;;;;;;;40.99;11.81;101666.66;5039206;28;20024;-68
2023/06/16 10:30:19;;;;;;;3.90;3.45;;;;;;;41.89;11.24;101659.50;5041539;28;20052;-68
2023/06/16 10:32:46;;;;;;;3.78;3.40;;;;;;;42.22;10.88;101660.25;5014709;28;20036;-67
2023/06/16 10:35:13;;;;;;;4.63;3.33;;;;;;;42.74;10.80;101659.47;5036336;28;20036;-68
2023/06/16 10:37:38;;;;;;;4.78;3.50;;;;;;;43.59;10.80;101662.78;5031222;28;20029;-68
2023/06/16 10:40:14;;;;;;;4.18;3.60;;;;;;;42.83;9.97;101659.78;5042082;28;20497;-68
2023/06/16 10:42:40;;;;;;;3.78;3.17;;;;;;;42.58;10.69;101658.53;5037923;28;20228;-68
2023/06/16 10:45:21;;;;;;;4.13;3.60;;;;;;;42.24;11.30;101646.88;5034745;28;20021;-67
2023/06/16 10:48:12;;;;;;;3.80;3.50;;;;;;;42.61;11.08;101652.41;5036025;28;20552;-68
2023/06/16 10:50:45;;;;;;;4.10;3.70;;;;;;;41.45;11.09;101653.22;5035681;28;20044;-68
2023/06/16 10:53:22;;;;;;;4.03;3.30;;;;;;;41.49;11.33;101654.38;5035290;28;20030;-69
2023/06/16 10:56:04;;;;;;;4.25;3.40;;;;;;;41.96;11.23;101648.06;5037452;28;20490;-69
2023/06/16 10:58:29;;;;;;;4.78;3.90;;;;;;;42.15;10.81;101648.50;5014970;28;20052;-69
2023/06/16 11:01:01;;;;;;;5.13;3.53;;;;;;;41.93;11.18;101651.41;5032635;28;20415;-69
2023/06/16 11:03:36;;;;;;;3.65;3.33;;;;;;;41.79;10.82;101648.19;5013709;28;20036;-69
2023/06/16 11:06:03;;;;;;;3.75;3.45;;;;;;;42.27;10.85;101637.97;5047379;28;20021;-69
2023/06/16 11:08:29;;;;;;;4.50;3.33;;;;;;;42.75;10.68;101636.78;5037772;28;20031;-69
2023/06/16 11:11:03;;;;;;;5.28;3.50;;;;;;;43.32;10.90;101639.75;5039564;28;20033;-69
2023/06/16 11:13:38;;;;;;;5.00;3.55;;;;;;;43.51;10.28;101638.94;5042783;28;20509;-69
2023/06/16 11:16:04;;;;;;;5.00;3.65;;;;;;;43.92;10.14;101627.75;5038794;28;20471;-69
2023/06/16 11:18:36;;;;;;;4.95;3.58;;;;;;;43.92;10.15;101638.94;5040164;28;20104;-68
2023/06/16 11:21:04;;;;;;;4.00;3.60;;;;;;;43.27;9.64;101637.81;5037130;28;20033;-68